Time;durP1;ratioP1;P1;durP2;ratioP2;P2;SDS_P1;SDS_P2;PMS_P1;PMS_P2;Temp;Humidity;BMP_temperature;BMP_pressure;BME280_temperature;BME280_humidity;BME280_pressure;Samples;Min_cycle;Max_cycle;Signal;HPM_P1;HPM_P2
2023/10/11 00:00:35;;;;;;;27.80;15.00;;;;;;;8.48;80.49;100720.48;107872;276;96664;-56
2023/10/11 00:03:36;;;;;;;21.20;14.30;;;;;;;8.47;80.49;100715.38;107902;275;98622;-55
2023/10/11 00:06:19;;;;;;;22.70;15.30;;;;;;;8.45;80.67;100715.95;107674;276;121056;-59
2023/10/11 00:08:57;;;;;;;21.30;14.30;;;;;;;8.46;80.58;100709.75;107929;275;104899;-58
2023/10/11 00:11:38;;;;;;;20.10;14.50;;;;;;;8.44;80.68;100704.27;107698;276;115231;-54
2023/10/11 00:14:19;;;;;;;21.30;14.30;;;;;;;8.39;80.83;100700.48;107971;275;94105;-56
2023/10/11 00:16:57;;;;;;;23.30;15.80;;;;;;;8.35;80.95;100701.33;107777;275;96509;-58
2023/10/11 00:19:40;;;;;;;25.50;15.50;;;;;;;8.32;80.98;100698.96;107918;275;120330;-58
2023/10/11 00:22:21;;;;;;;25.30;15.40;;;;;;;8.24;81.19;100696.69;107941;275;105938;-54
2023/10/11 00:24:59;;;;;;;24.70;15.10;;;;;;;8.19;81.38;100696.15;107917;276;115048;-53
2023/10/11 00:27:44;;;;;;;24.00;15.20;;;;;;;8.18;81.54;100696.45;107963;275;96238;-54
2023/10/11 00:30:30;;;;;;;22.40;14.40;;;;;;;8.18;81.63;100692.02;107922;275;98072;-54
2023/10/11 00:33:09;;;;;;;24.30;15.80;;;;;;;8.22;81.76;100691.31;107853;275;119690;-54
2023/10/11 00:35:56;;;;;;;21.80;15.10;;;;;;;8.24;81.88;100694.61;107913;276;104423;-54
2023/10/11 00:38:43;;;;;;;22.90;14.90;;;;;;;8.26;81.97;100689.65;107900;275;113086;-55
2023/10/11 00:41:20;;;;;;;21.70;14.90;;;;;;;8.30;81.99;100686.03;107956;276;96591;-55
2023/10/11 00:44:05;;;;;;;22.60;15.00;;;;;;;8.35;82.05;100683.55;107933;275;97518;-54
2023/10/11 00:46:56;;;;;;;18.90;14.20;;;;;;;8.42;82.23;100685.99;107966;275;119125;-54
2023/10/11 00:49:39;;;;;;;22.30;15.10;;;;;;;8.47;82.25;100682.96;107916;275;105210;-53
2023/10/11 00:52:17;;;;;;;23.50;16.20;;;;;;;8.51;82.41;100678.15;107927;276;114432;-53
2023/10/11 00:54:56;;;;;;;23.90;15.80;;;;;;;8.58;82.26;100679.77;107993;275;94123;-53
2023/10/11 00:57:41;;;;;;;23.60;15.40;;;;;;;8.57;82.38;100678.71;108029;276;98376;-56
2023/10/11 01:03:14;;;;;;;23.30;16.20;;;;;;;8.63;82.45;100673.94;108000;275;104834;-53
2023/10/11 01:05:57;;;;;;;22.70;15.60;;;;;;;8.67;82.63;100669.52;107958;276;115231;-53
2023/10/11 01:08:39;;;;;;;23.10;15.60;;;;;;;8.68;82.58;100664.02;107976;275;97504;-54
2023/10/11 01:11:23;;;;;;;22.40;15.40;;;;;;;8.72;82.71;100658.91;107991;275;97892;-56
2023/10/11 01:14:00;;;;;;;22.70;15.80;;;;;;;8.75;82.94;100653.11;107741;276;119701;-56
2023/10/11 01:16:38;;;;;;;24.30;15.40;;;;;;;8.80;83.06;100645.45;107952;275;103071;-53
2023/10/11 01:19:23;;;;;;;25.60;17.50;;;;;;;8.82;82.98;100649.54;107893;275;115047;-53
2023/10/11 01:21:59;;;;;;;;;;;;;;;8.85;83.08;100643.10;107708;275;98345;-57
2023/10/11 01:24:35;;;;;;;23.30;15.20;;;;;;;8.87;83.11;100635.64;107929;275;97442;-57
2023/10/11 01:27:13;;;;;;;28.30;17.30;;;;;;;8.93;83.25;100634.41;107919;276;120448;-52
2023/10/11 01:29:53;;;;;;;26.30;16.30;;;;;;;8.98;83.25;100626.89;107967;276;105229;-53
2023/10/11 01:32:29;;;;;;;27.30;18.10;;;;;;;9.00;83.31;100628.09;107708;276;114816;-53
2023/10/11 01:35:05;;;;;;;28.10;17.40;;;;;;;9.00;83.34;100625.98;107881;275;96688;-53
2023/10/11 01:37:44;;;;;;;25.50;17.50;;;;;;;8.99;83.57;100629.82;107947;275;98003;-55
2023/10/11 01:40:31;;;;;;;26.60;17.70;;;;;;;9.02;83.69;100631.09;107896;276;120589;-54
2023/10/11 01:43:17;;;;;;;29.30;19.10;;;;;;;9.05;83.78;100627.14;107936;276;104909;-56
2023/10/11 01:45:56;;;;;;;29.30;19.10;;;;;;;9.08;83.91;100623.95;107744;276;114524;-56
2023/10/11 01:48:37;;;;;;;30.90;18.20;;;;;;;9.10;84.10;100620.17;107950;275;97462;-57
2023/10/11 01:51:21;;;;;;;27.20;18.40;;;;;;;9.10;84.24;100624.04;107970;275;97363;-57
2023/10/11 01:54:00;;;;;;;26.70;18.00;;;;;;;9.14;84.15;100616.80;107921;276;120715;-56
2023/10/11 01:56:38;;;;;;;32.60;21.00;;;;;;;9.15;84.47;100619.76;108067;275;105555;-54
2023/10/11 01:59:23;;;;;;;28.90;19.00;;;;;;;9.14;84.36;100617.98;107929;275;113863;-53
2023/10/11 02:02:03;;;;;;;30.70;18.20;;;;;;;9.15;84.51;100615.02;107911;275;97526;-52
2023/10/11 02:04:45;;;;;;;34.60;21.10;;;;;;;9.17;84.47;100610.72;107915;275;98204;-53
2023/10/11 02:07:34;;;;;;;34.30;21.50;;;;;;;9.19;84.74;100607.43;107917;275;120160;-56
2023/10/11 02:10:16;;;;;;;38.10;22.60;;;;;;;9.20;84.76;100608.89;107936;275;105414;-56
2023/10/11 02:12:59;;;;;;;33.20;20.50;;;;;;;9.21;84.84;100608.54;107933;275;112527;-53
2023/10/11 02:15:40;;;;;;;27.80;19.30;;;;;;;9.28;84.84;100602.24;107907;275;97051;-54
2023/10/11 02:18:17;;;;;;;25.90;18.30;;;;;;;9.26;85.14;100599.73;107953;276;97755;-53
2023/10/11 02:20:55;;;;;;;27.30;18.70;;;;;;;9.26;85.03;100598.30;107720;276;119932;-56
2023/10/11 02:23:42;;;;;;;29.20;19.90;;;;;;;9.26;85.06;100594.40;107875;275;103786;-56
2023/10/11 02:26:29;;;;;;;27.40;18.40;;;;;;;9.26;85.02;100589.71;107912;274;114378;-56
2023/10/11 02:29:15;;;;;;;26.00;18.40;;;;;;;9.26;85.20;100592.55;107823;275;96486;-55
2023/10/11 02:31:57;;;;;;;24.90;18.40;;;;;;;9.29;85.32;100589.36;107931;275;96314;-57
2023/10/11 02:34:41;;;;;;;28.50;18.20;;;;;;;9.35;85.24;100587.87;107947;275;120541;-57
2023/10/11 02:37:22;;;;;;;27.10;19.30;;;;;;;9.35;85.23;100586.96;108052;275;105894;-56
2023/10/11 02:40:09;;;;;;;25.50;18.60;;;;;;;9.32;85.46;100584.25;107943;275;112198;-54
2023/10/11 02:42:46;;;;;;;25.90;18.60;;;;;;;9.31;85.53;100579.89;107944;275;95831;-58
2023/10/11 02:45:24;;;;;;;28.40;18.60;;;;;;;9.32;85.58;100578.77;107921;275;98518;-57
2023/10/11 02:48:10;;;;;;;24.50;17.40;;;;;;;9.36;85.48;100576.63;106582;275;1638786;-53
2023/10/11 02:50:55;;;;;;;26.80;17.90;;;;;;;9.36;85.65;100571.56;107875;275;105083;-54
2023/10/11 02:53:36;;;;;;;28.00;18.60;;;;;;;9.37;85.63;100569.87;107926;276;114656;-55
2023/10/11 02:56:16;;;;;;;26.10;17.80;;;;;;;9.39;85.64;100565.81;107860;276;94922;-57
2023/10/11 02:58:57;;;;;;;25.50;17.60;;;;;;;9.42;85.70;100568.04;107942;275;97561;-55
2023/10/11 03:01:33;;;;;;;26.80;18.00;;;;;;;9.46;85.62;100568.67;107886;275;120397;-55
2023/10/11 03:04:16;;;;;;;25.40;17.10;;;;;;;9.48;85.99;100564.75;107704;276;103800;-55
2023/10/11 03:07:01;;;;;;;24.50;18.10;;;;;;;9.53;85.78;100566.45;107916;275;114476;-56
2023/10/11 03:09:40;;;;;;;29.60;18.70;;;;;;;9.51;85.93;100560.81;107914;275;96827;-56
2023/10/11 03:12:24;;;;;;;26.10;17.50;;;;;;;9.52;85.93;100564.40;107967;275;97889;-57
2023/10/11 03:15:11;;;;;;;25.10;17.80;;;;;;;9.55;85.95;100560.80;107986;275;121145;-58
2023/10/11 03:17:52;;;;;;;25.70;17.60;;;;;;;9.58;86.15;100560.70;107995;275;105387;-54
2023/10/11 03:20:39;;;;;;;31.80;18.50;;;;;;;9.59;86.05;100555.98;107997;275;115671;-56
2023/10/11 03:23:21;;;;;;;;;;;;;;;9.60;86.22;100552.44;107981;275;95754;-55
2023/10/11 03:26:07;;;;;;;24.70;17.30;;;;;;;9.58;86.18;100552.07;107992;276;97909;-56
2023/10/11 03:28:56;;;;;;;26.40;18.50;;;;;;;9.61;86.33;100547.61;107985;275;120041;-57
2023/10/11 03:31:40;;;;;;;26.50;17.80;;;;;;;9.62;86.27;100546.31;107730;276;105197;-52
2023/10/11 03:34:19;;;;;;;27.60;18.20;;;;;;;9.64;86.55;100542.64;107863;276;114474;-52
2023/10/11 03:36:59;;;;;;;25.30;17.60;;;;;;;9.66;86.36;100542.55;107928;276;95746;-56
2023/10/11 03:39:44;;;;;;;25.10;18.00;;;;;;;9.62;86.57;100539.08;107875;276;97655;-55
2023/10/11 03:42:27;;;;;;;28.20;18.80;;;;;;;9.67;86.50;100537.95;107919;276;120504;-58
2023/10/11 03:45:08;;;;;;;24.40;17.20;;;;;;;9.69;86.57;100534.92;107910;275;105365;-58
2023/10/11 03:47:48;;;;;;;27.30;17.80;;;;;;;9.70;86.53;100535.56;107915;276;114144;-58
2023/10/11 03:50:34;;;;;;;28.20;19.10;;;;;;;9.73;86.58;100532.76;107958;275;97067;-57
2023/10/11 03:53:11;;;;;;;30.00;17.80;;;;;;;9.73;86.84;100528.52;107967;275;96784;-54
2023/10/11 03:55:57;;;;;;;25.30;18.60;;;;;;;9.77;86.76;100531.38;107917;275;120583;-57
2023/10/11 03:58:38;;;;;;;26.90;19.20;;;;;;;9.78;86.95;100527.48;107603;276;107829;-58
2023/10/11 04:01:37;;;;;;;26.40;17.80;;;;;;;9.79;86.82;100524.06;107895;276;113705;-56
2023/10/11 04:04:20;;;;;;;27.80;18.40;;;;;;;9.80;86.81;100519.23;108053;275;96611;-57
2023/10/11 04:07:04;;;;;;;25.90;17.30;;;;;;;9.85;86.90;100511.80;108023;275;98016;-56
2023/10/11 04:09:44;;;;;;;22.60;16.40;;;;;;;9.88;86.91;100510.81;107964;276;121138;-57
2023/10/11 04:12:24;;;;;;;24.50;18.20;;;;;;;9.89;86.91;100510.27;107951;275;104140;-52
2023/10/11 04:15:24;;;;;;;27.30;17.40;;;;;;;9.91;86.89;100500.87;107932;275;115661;-52
2023/10/11 04:18:05;;;;;;;26.60;17.90;;;;;;;9.92;86.89;100502.73;107932;275;95956;-56
2023/10/11 04:20:51;;;;;;;25.80;18.20;;;;;;;9.95;86.99;100498.37;107935;275;98100;-57
2023/10/11 04:23:40;;;;;;;26.10;18.10;;;;;;;10.02;87.01;100503.15;107876;275;122456;-56
2023/10/11 04:29:18;;;;;;;25.90;18.10;;;;;;;9.96;87.00;100487.61;107877;275;114357;-53
2023/10/11 04:34:55;;;;;;;28.30;18.10;;;;;;;9.94;87.31;100483.80;107932;275;98456;-54
2023/10/11 04:37:44;;;;;;;26.40;17.90;;;;;;;9.99;87.29;100478.41;107884;276;120139;-57
2023/10/11 04:40:23;;;;;;;25.90;17.80;;;;;;;9.98;87.16;100474.95;107932;275;105541;-58
2023/10/11 04:43:08;;;;;;;26.30;18.30;;;;;;;9.99;87.30;100469.06;107941;276;115678;-54
2023/10/11 04:45:50;;;;;;;29.00;19.30;;;;;;;9.99;87.48;100468.23;107934;276;96285;-54
2023/10/11 04:48:33;;;;;;;25.30;16.90;;;;;;;9.99;87.51;100472.76;108039;275;98855;-55
2023/10/11 04:51:21;;;;;;;26.80;16.90;;;;;;;9.97;87.35;100473.18;108002;276;119644;-58
2023/10/11 04:54:13;;;;;;;26.90;18.00;;;;;;;9.88;87.59;100472.21;107948;275;105663;-59
2023/10/11 04:56:56;;;;;;;23.90;17.20;;;;;;;9.85;87.60;100474.10;107935;276;114108;-54
2023/10/11 04:59:37;;;;;;;25.50;17.10;;;;;;;9.81;87.54;100469.89;107904;276;97435;-54
2023/10/11 05:02:24;;;;;;;27.10;17.80;;;;;;;9.82;87.66;100468.36;107976;275;98345;-54
2023/10/11 05:05:01;;;;;;;25.90;18.10;;;;;;;9.84;87.58;100469.27;107864;275;120531;-54
2023/10/11 05:07:42;;;;;;;27.70;18.80;;;;;;;9.83;87.66;100468.43;107934;275;104802;-58
2023/10/11 05:10:30;;;;;;;25.90;18.60;;;;;;;9.82;87.96;100465.96;107907;276;114501;-57
2023/10/11 05:13:13;;;;;;;29.00;19.00;;;;;;;9.83;87.96;100459.02;107910;275;97370;-58
2023/10/11 05:15:52;;;;;;;27.00;18.50;;;;;;;9.85;88.14;100460.54;107883;276;98121;-57
2023/10/11 05:18:37;;;;;;;24.70;17.00;;;;;;;9.89;87.93;100456.63;107947;275;120156;-56
2023/10/11 05:21:26;;;;;;;24.00;17.70;;;;;;;9.94;87.95;100458.03;107937;275;103614;-54
2023/10/11 05:24:43;;;;;;;27.50;19.00;;;;;;;10.00;88.03;100461.61;107901;276;113981;-52
2023/10/11 05:27:37;;;;;;;25.80;18.60;;;;;;;10.06;88.11;100460.46;107896;275;95493;-56
2023/10/11 05:30:28;;;;;;;25.80;17.90;;;;;;;10.13;87.94;100458.90;107924;275;98699;-57
2023/10/11 05:33:31;;;;;;;27.10;18.90;;;;;;;10.09;88.05;100460.24;108078;275;121550;-53
2023/10/11 05:36:39;;;;;;;27.90;19.00;;;;;;;10.07;88.12;100458.27;107996;275;106418;-57
2023/10/11 05:50:54;;;;;;;29.20;19.30;;;;;;;10.45;88.38;100435.62;107957;275;105529;-56
2023/10/11 05:53:31;;;;;;;28.40;20.00;;;;;;;10.47;88.40;100439.02;107881;275;113966;-57
2023/10/11 05:56:20;;;;;;;29.50;19.00;;;;;;;10.54;88.52;100434.16;107909;276;95266;-55
2023/10/11 05:59:03;;;;;;;25.60;19.00;;;;;;;10.60;88.60;100434.69;107957;275;97811;-55
2023/10/11 06:01:38;;;;;;;27.70;19.40;;;;;;;10.71;88.53;100432.26;107900;275;122436;-53
2023/10/11 06:04:15;;;;;;;27.40;20.00;;;;;;;10.88;88.66;100431.71;107971;275;104640;-53
2023/10/11 06:06:58;;;;;;;25.90;17.90;;;;;;;11.08;88.62;100434.55;107936;275;114416;-54
2023/10/11 06:09:43;;;;;;;29.00;20.50;;;;;;;11.34;88.50;100433.27;107926;275;96095;-53
2023/10/11 06:12:26;;;;;;;26.30;18.70;;;;;;;11.58;88.36;100434.17;107915;275;97085;-53
2023/10/11 06:15:03;;;;;;;;;;;;;;;11.71;88.43;100426.68;107972;275;120950;-54
2023/10/11 06:17:49;;;;;;;27.70;20.50;;;;;;;11.85;88.22;100422.63;107987;275;106442;-57
2023/10/11 06:20:27;;;;;;;24.80;18.10;;;;;;;11.98;87.95;100426.56;107932;275;113850;-56
2023/10/11 06:23:08;;;;;;;29.10;19.90;;;;;;;12.03;87.77;100424.31;107952;275;93896;-53
2023/10/11 06:25:53;;;;;;;26.40;18.40;;;;;;;12.09;87.58;100426.39;107917;276;96204;-56
2023/10/11 06:28:33;;;;;;;24.70;18.50;;;;;;;12.12;87.44;100424.58;107947;275;121180;-56
2023/10/11 06:31:10;;;;;;;26.80;18.60;;;;;;;12.19;87.15;100415.73;107964;275;103380;-57
2023/10/11 06:33:52;;;;;;;28.20;20.80;;;;;;;12.23;87.15;100416.35;107897;275;113728;-56
2023/10/11 06:36:35;;;;;;;26.00;18.30;;;;;;;12.24;87.07;100415.61;107918;275;96924;-53
2023/10/11 06:42:31;;;;;;;24.50;18.30;;;;;;;12.53;86.94;100415.67;107503;279;120137;-53
2023/10/11 06:45:16;;;;;;;24.60;18.10;;;;;;;12.67;86.59;100410.36;107858;276;106463;-53
2023/10/11 06:48:06;;;;;;;26.30;18.90;;;;;;;12.67;86.57;100409.36;107918;275;112506;-54
2023/10/11 06:50:46;;;;;;;24.60;18.40;;;;;;;12.65;86.45;100407.09;107938;276;93607;-54
2023/10/11 06:53:21;;;;;;;24.70;18.90;;;;;;;12.67;86.37;100403.56;107761;275;96471;-54
2023/10/11 06:56:05;;;;;;;24.90;18.60;;;;;;;12.76;86.27;100400.67;107680;276;121339;-58
2023/10/11 06:58:44;;;;;;;26.30;18.60;;;;;;;12.84;86.12;100397.66;107928;275;105985;-58
2023/10/11 07:01:26;;;;;;;24.80;18.10;;;;;;;13.04;86.02;100398.13;107959;275;114572;-53
2023/10/11 07:04:15;;;;;;;25.00;17.90;;;;;;;13.25;86.08;100395.11;107920;275;95717;-54
2023/10/11 07:07:00;;;;;;;21.90;18.00;;;;;;;13.42;85.75;100394.13;107995;275;98426;-53
2023/10/11 07:09:56;;;;;;;25.00;18.90;;;;;;;13.64;85.76;100390.16;107990;275;121002;-53
2023/10/11 07:12:40;;;;;;;26.10;19.30;;;;;;;13.85;85.62;100389.15;107974;276;104709;-54
2023/10/11 07:15:20;;;;;;;23.80;17.30;;;;;;;14.00;85.21;100388.16;107934;275;114693;-54
2023/10/11 07:18:01;;;;;;;24.60;17.70;;;;;;;14.06;84.85;100390.23;107691;276;96010;-52
2023/10/11 07:20:48;;;;;;;23.50;17.30;;;;;;;14.08;84.69;100382.26;108001;276;96371;-54
2023/10/11 07:23:34;;;;;;;21.90;16.60;;;;;;;14.18;84.50;100379.30;107921;276;120149;-54
2023/10/11 07:26:48;;;;;;;23.60;16.30;;;;;;;14.40;84.32;100380.02;107914;275;105970;-56
2023/10/11 07:29:23;;;;;;;25.40;17.90;;;;;;;14.64;83.75;100373.48;107947;275;114279;-57
2023/10/11 07:32:02;;;;;;;21.50;17.30;;;;;;;14.74;83.65;100368.11;107937;275;93254;-58
2023/10/11 07:34:47;;;;;;;20.30;17.00;;;;;;;15.02;83.80;100364.82;107965;275;97003;-58
2023/10/11 07:37:30;;;;;;;22.40;16.40;;;;;;;15.59;83.50;100368.90;107891;275;120730;-54
2023/10/11 07:40:32;;;;;;;19.00;16.20;;;;;;;15.92;82.66;100367.94;107937;275;105765;-55
2023/10/11 07:43:15;;;;;;;24.80;16.80;;;;;;;16.01;82.15;100357.95;108008;276;114272;-57
2023/10/11 07:45:59;;;;;;;19.20;15.60;;;;;;;16.26;81.83;100354.70;107976;275;93628;-57
2023/10/11 07:48:39;;;;;;;22.10;16.00;;;;;;;16.68;81.68;100354.70;107983;275;96539;-57
2023/10/11 07:51:19;;;;;;;22.70;16.40;;;;;;;17.42;80.83;100346.55;107739;276;121792;-55
2023/10/11 07:53:57;;;;;;;27.00;18.20;;;;;;;18.10;79.58;100333.45;107949;275;107009;-54
2023/10/11 07:56:37;;;;;;;18.70;15.10;;;;;;;18.69;78.65;100328.70;107918;276;113908;-53
2023/10/11 07:59:13;;;;;;;16.20;14.40;;;;;;;18.88;77.78;100317.85;107963;276;95533;-53
2023/10/11 08:01:48;;;;;;;19.40;15.70;;;;;;;19.05;76.20;100313.17;107984;275;97632;-55
2023/10/11 08:04:27;;;;;;;17.20;14.00;;;;;;;18.73;75.68;100315.42;107953;275;121551;-56
2023/10/11 08:07:12;;;;;;;16.40;14.50;;;;;;;18.50;75.50;100320.22;107957;276;105532;-56
2023/10/11 08:09:52;;;;;;;20.70;15.20;;;;;;;18.54;75.49;100320.52;107910;275;114893;-56
2023/10/11 08:12:38;;;;;;;17.80;14.10;;;;;;;18.64;74.77;100315.97;107973;275;95292;-56
2023/10/11 08:15:14;;;;;;;18.10;15.20;;;;;;;18.61;74.38;100316.02;107933;276;98574;-56
2023/10/11 08:17:54;;;;;;;16.20;14.40;;;;;;;18.47;74.61;100312.20;107955;275;121153;-56
2023/10/11 08:20:33;;;;;;;20.00;15.40;;;;;;;18.33;74.50;100306.98;107951;275;105446;-57
2023/10/11 08:23:09;;;;;;;19.60;15.40;;;;;;;18.19;74.75;100302.10;107729;276;114196;-56
2023/10/11 08:25:51;;;;;;;19.50;15.50;;;;;;;18.15;74.94;100296.39;107687;276;94887;-54
2023/10/11 08:28:29;;;;;;;16.40;14.20;;;;;;;18.17;74.91;100292.32;107687;276;97112;-53
2023/10/11 08:31:10;;;;;;;16.90;13.60;;;;;;;18.20;75.13;100294.59;107748;276;121554;-55
2023/10/11 08:33:50;;;;;;;17.30;14.40;;;;;;;18.30;75.14;100286.70;107674;276;106200;-55
2023/10/11 08:36:29;;;;;;;18.00;14.50;;;;;;;18.42;75.02;100285.73;107719;276;114472;-54
2023/10/11 08:39:13;;;;;;;15.90;14.20;;;;;;;18.56;75.09;100277.92;107725;276;92367;-55
2023/10/11 08:41:58;;;;;;;17.30;13.60;;;;;;;18.60;75.03;100273.41;107697;276;96121;-53
2023/10/11 08:44:35;;;;;;;18.10;13.60;;;;;;;18.61;74.97;100263.97;107639;276;119875;-53
2023/10/11 08:47:10;;;;;;;15.80;12.80;;;;;;;18.68;75.02;100260.16;107664;276;104786;-54
2023/10/11 08:49:50;;;;;;;17.00;13.70;;;;;;;18.69;75.00;100260.73;107619;276;115110;-54
2023/10/11 08:52:30;;;;;;;16.00;13.10;;;;;;;18.76;75.10;100259.17;107659;276;94175;-53
2023/10/11 08:55:12;;;;;;;16.30;13.00;;;;;;;18.81;75.07;100259.70;107667;276;97086;-54
2023/10/11 08:57:53;;;;;;;17.20;12.50;;;;;;;18.86;74.73;100255.45;107649;276;120348;-57
2023/10/11 09:00:31;;;;;;;16.30;11.90;;;;;;;18.99;74.90;100252.33;107658;276;106240;-56
2023/10/11 09:03:23;;;;;;;15.60;12.90;;;;;;;19.08;74.85;100249.77;107677;276;113632;-57
2023/10/11 09:06:05;;;;;;;15.90;12.40;;;;;;;19.23;74.65;100249.35;107707;276;94482;-55
2023/10/11 09:08:40;;;;;;;14.60;12.10;;;;;;;19.42;74.39;100244.42;107661;276;96650;-55
2023/10/11 09:11:28;;;;;;;15.60;12.40;;;;;;;19.55;73.90;100243.63;107730;276;118022;-58
2023/10/11 09:14:24;;;;;;;15.60;11.80;;;;;;;19.73;73.61;100241.58;107749;276;104315;-58
2023/10/11 09:17:02;;;;;;;14.50;11.80;;;;;;;20.02;73.26;100243.36;107732;276;113938;-55
2023/10/11 09:19:54;;;;;;;13.40;11.20;;;;;;;20.22;73.12;100241.14;107649;276;94785;-56
2023/10/11 09:22:52;;;;;;;19.70;11.70;;;;;;;20.36;72.42;100238.54;107712;276;96319;-59
2023/10/11 09:25:34;;;;;;;14.40;10.70;;;;;;;20.40;71.93;100235.90;107722;276;120251;-59
2023/10/11 09:28:22;;;;;;;14.10;10.30;;;;;;;20.49;71.64;100236.15;107468;276;105661;-53
2023/10/11 09:31:20;;;;;;;15.70;10.70;;;;;;;20.74;71.09;100235.09;107622;276;114882;-59
2023/10/11 09:33:59;;;;;;;12.30;10.30;;;;;;;21.08;71.18;100222.19;107614;276;93661;-58
2023/10/11 09:36:34;;;;;;;13.30;10.00;;;;;;;21.39;71.07;100213.70;107680;276;97285;-58
2023/10/11 09:39:15;;;;;;;11.50;9.50;;;;;;;21.64;70.82;100214.67;107671;276;121651;-58
2023/10/11 09:42:02;;;;;;;13.30;9.80;;;;;;;21.71;69.65;100216.27;107646;276;105182;-54
2023/10/11 09:44:43;;;;;;;12.50;9.80;;;;;;;21.63;69.63;100210.06;107655;276;114202;-54
2023/10/11 09:47:25;;;;;;;12.90;9.90;;;;;;;21.64;69.48;100208.53;107672;276;94669;-57
2023/10/11 09:50:03;;;;;;;12.60;9.80;;;;;;;21.61;69.06;100208.80;107670;276;98149;-57
2023/10/11 09:52:45;;;;;;;12.00;9.50;;;;;;;21.55;69.03;100203.34;107702;276;119091;-56
2023/10/11 09:55:31;;;;;;;16.70;10.70;;;;;;;21.53;68.85;100203.73;107682;276;104371;-55
2023/10/11 09:58:22;;;;;;;12.90;9.40;;;;;;;21.57;68.83;100202.43;107699;276;112093;-59
2023/10/11 10:01:10;;;;;;;12.80;9.40;;;;;;;21.65;69.11;100199.34;107630;276;94129;-54
2023/10/11 10:03:53;;;;;;;10.60;9.10;;;;;;;21.73;69.02;100195.33;107714;276;97192;-54
2023/10/11 10:06:30;;;;;;;14.50;9.00;;;;;;;21.69;67.86;100184.02;107617;276;118916;-58
2023/10/11 10:09:29;;;;;;;12.10;9.40;;;;;;;21.63;67.81;100180.69;107708;276;105337;-58
2023/10/11 10:12:25;;;;;;;11.60;8.80;;;;;;;21.45;67.49;100178.89;107703;276;114798;-57
2023/10/11 10:15:20;;;;;;;11.60;8.50;;;;;;;21.32;67.81;100173.41;107619;276;95065;-57
2023/10/11 10:18:29;;;;;;;12.50;8.20;;;;;;;21.39;68.09;100167.09;107661;276;96982;-58
2023/10/11 10:21:04;;;;;;;14.00;9.60;;;;;;;21.44;68.00;100160.52;107661;276;120871;-57
2023/10/11 10:23:45;;;;;;;12.40;9.10;;;;;;;21.40;67.61;100157.31;107645;276;103097;-57
2023/10/11 10:26:46;;;;;;;14.10;9.10;;;;;;;21.37;67.82;100157.84;107653;276;114282;-56
2023/10/11 10:29:46;;;;;;;13.00;8.80;;;;;;;21.39;67.85;100152.20;107620;276;92395;-56
2023/10/11 10:32:20;;;;;;;13.00;8.30;;;;;;;21.39;67.69;100150.87;107641;276;97467;-54
2023/10/11 10:35:36;;;;;;;13.80;8.90;;;;;;;21.36;67.61;100151.73;107648;276;119637;-53
2023/10/11 10:38:22;;;;;;;12.10;7.80;;;;;;;21.31;67.19;100144.84;107666;276;104774;-53
2023/10/11 10:41:30;;;;;;;13.30;8.00;;;;;;;21.25;66.92;100140.83;107622;276;114936;-58
2023/10/11 10:44:11;;;;;;;12.50;7.60;;;;;;;21.23;66.74;100141.92;107704;276;94437;-58
2023/10/11 10:46:53;;;;;;;11.00;7.20;;;;;;;21.27;66.87;100135.42;107719;276;96743;-57
2023/10/11 10:49:43;;;;;;;16.70;7.70;;;;;;;21.27;66.73;100135.04;107235;276;121408;-56
2023/10/11 10:52:30;;;;;;;12.30;7.60;;;;;;;21.18;66.51;100134.30;107777;276;105595;-53
2023/10/11 10:58:03;;;;;;;11.60;7.70;;;;;;;21.09;66.44;100142.70;107726;276;93596;-55
2023/10/11 11:00:43;;;;;;;9.80;7.80;;;;;;;21.13;66.56;100144.17;107726;276;97713;-54
2023/10/11 11:03:25;;;;;;;13.00;7.20;;;;;;;21.18;66.67;100141.61;107656;276;120790;-53
2023/10/11 11:06:11;;;;;;;10.10;7.40;;;;;;;21.22;66.46;100146.52;107698;276;104891;-58
2023/10/11 11:08:53;;;;;;;10.70;7.50;;;;;;;21.19;66.16;100137.34;107628;276;114883;-57
2023/10/11 11:11:35;;;;;;;9.90;7.70;;;;;;;21.18;66.21;100134.91;107672;276;92800;-57
2023/10/11 11:14:19;;;;;;;11.30;7.50;;;;;;;21.20;66.34;100127.93;107683;276;98095;-56
2023/10/11 11:17:07;;;;;;;12.70;7.60;;;;;;;21.18;66.03;100127.17;107694;276;120178;-54
2023/10/11 11:20:12;;;;;;;10.60;7.00;;;;;;;21.15;66.18;100121.17;107658;276;104359;-55
2023/10/11 11:22:52;;;;;;;12.40;7.30;;;;;;;21.15;65.84;100114.29;107699;276;114748;-58
2023/10/11 11:25:36;;;;;;;10.60;6.90;;;;;;;21.14;66.16;100110.60;107683;276;93577;-57
2023/10/11 11:28:17;;;;;;;;;;;;;;;21.09;65.96;100107.00;107702;276;97473;-54
2023/10/11 11:31:13;;;;;;;9.50;6.60;;;;;;;21.04;65.81;100107.38;107676;276;120037;-58
2023/10/11 11:34:11;;;;;;;11.50;7.20;;;;;;;21.10;66.17;100107.39;107726;276;105434;-57
2023/10/11 11:36:58;;;;;;;11.40;6.60;;;;;;;21.15;66.24;100105.27;107701;276;114464;-58
2023/10/11 11:39:51;;;;;;;9.80;7.10;;;;;;;21.14;66.01;100108.40;107741;276;94378;-58
2023/10/11 11:42:33;;;;;;;11.60;8.00;;;;;;;21.16;65.85;100097.98;107574;276;99542;-58
2023/10/11 11:45:14;;;;;;;10.60;6.80;;;;;;;21.19;65.79;100101.02;107682;276;120364;-59
2023/10/11 11:47:57;;;;;;;9.70;6.50;;;;;;;21.17;65.93;100093.80;107647;276;105124;-58
2023/10/11 11:50:39;;;;;;;10.70;6.90;;;;;;;21.22;65.92;100088.35;107650;276;113340;-56
2023/10/11 11:53:21;;;;;;;9.60;6.60;;;;;;;21.23;65.68;100082.58;107571;276;95063;-55
2023/10/11 11:56:00;;;;;;;11.30;6.80;;;;;;;21.20;65.84;100077.05;107688;276;97337;-55
2023/10/11 11:58:40;;;;;;;9.30;6.80;;;;;;;21.18;65.52;100078.36;107578;276;120281;-55
2023/10/11 12:01:26;;;;;;;11.30;6.50;;;;;;;21.19;65.94;100080.69;107662;276;105959;-55
2023/10/11 12:04:00;;;;;;;8.70;6.20;;;;;;;21.20;65.61;100082.62;107659;276;115179;-55
2023/10/11 12:06:38;;;;;;;15.20;7.00;;;;;;;21.20;65.58;100078.82;107658;276;94591;-56
2023/10/11 12:09:20;;;;;;;10.10;6.60;;;;;;;21.19;65.49;100073.37;107677;276;98478;-55
2023/10/11 12:12:02;;;;;;;11.70;6.30;;;;;;;21.25;65.70;100069.61;107672;276;121065;-54
2023/10/11 12:14:41;;;;;;;9.20;6.70;;;;;;;21.30;65.41;100067.77;107665;276;105225;-54
2023/10/11 12:17:18;;;;;;;11.40;6.20;;;;;;;21.37;65.29;100067.48;107665;276;114724;-54
2023/10/11 12:20:00;;;;;;;10.30;6.20;;;;;;;21.37;65.37;100064.45;107661;276;93915;-54
2023/10/11 12:22:42;;;;;;;12.10;6.50;;;;;;;21.42;65.39;100060.64;107538;276;97249;-55
2023/10/11 12:25:24;;;;;;;11.30;7.60;;;;;;;21.43;65.28;100060.24;107722;276;120119;-55
2023/10/11 12:28:05;;;;;;;10.90;6.60;;;;;;;21.42;64.84;100056.51;107731;276;104733;-54
2023/10/11 12:30:45;;;;;;;15.80;7.70;;;;;;;21.46;65.11;100056.20;107584;276;115737;-55
2023/10/11 12:33:23;;;;;;;13.00;6.50;;;;;;;21.43;64.28;100053.81;107681;276;93832;-56
2023/10/11 12:36:05;;;;;;;12.30;6.30;;;;;;;21.39;63.88;100052.20;107657;276;98201;-55
2023/10/11 12:38:48;;;;;;;9.60;5.80;;;;;;;21.37;63.93;100047.91;107643;276;120188;-57
2023/10/11 12:41:36;;;;;;;9.50;6.10;;;;;;;21.38;63.74;100048.23;107686;276;104671;-55
2023/10/11 12:44:15;;;;;;;9.90;5.80;;;;;;;21.39;63.73;100048.74;107609;276;113539;-55
2023/10/11 12:46:58;;;;;;;11.90;6.00;;;;;;;21.42;63.81;100049.46;107675;276;93222;-58
2023/10/11 12:49:38;;;;;;;10.60;5.50;;;;;;;21.42;63.19;100054.14;107705;276;98077;-54
2023/10/11 12:52:21;;;;;;;9.80;5.80;;;;;;;21.42;63.20;100048.11;107672;276;120308;-53